Time;durP1;ratioP1;P1;durP2;ratioP2;P2;SDS_P1;SDS_P2;PMS_P1;PMS_P2;Temp;Humidity;BMP_temperature;BMP_pressure;BME280_temperature;BME280_humidity;BME280_pressure;Samples;Min_cycle;Max_cycle;Signal;HPM_P1;HPM_P2
2021/05/07 00:04:20;;;;;;;;;;;4.20;99.90;;;;;;10399343;28;19925;-89
2021/05/07 00:09:22;;;;;;;;;;;4.20;99.90;;;;;;10439346;28;19925;-88
2021/05/07 00:14:23;;;;;;;;;;;4.20;99.90;;;;;;10440064;28;19956;-89
2021/05/07 00:19:24;;;;;;;;;;;4.40;99.90;;;;;;10448713;28;20376;-88
2021/05/07 00:24:25;;;;;;;;;;;4.40;99.90;;;;;;10464980;28;19925;-89
2021/05/07 00:29:29;;;;;;;;;;;4.50;99.90;;;;;;10481341;28;19924;-88
2021/05/07 00:34:30;;;;;;;;;;;4.40;99.90;;;;;;10465218;28;20027;-88
2021/05/07 00:39:32;;;;;;;;;;;4.40;99.90;;;;;;10480897;28;19924;-88
2021/05/07 00:44:33;;;;;;;;;;;4.20;99.90;;;;;;10481176;28;19925;-89
2021/05/07 00:49:35;;;;;;;;;;;4.10;99.90;;;;;;10463978;28;20291;-88
2021/05/07 00:54:37;;;;;;;;;;;6.90;99.90;;;;;;10480909;28;19931;-88
2021/05/07 00:59:38;;;;;;;;;;;3.90;99.90;;;;;;10464063;28;19929;-88
2021/05/07 01:04:39;;;;;;;;;;;3.70;99.90;;;;;;10480527;28;19924;-88
2021/05/07 01:09:41;;;;;;;;;;;3.60;99.90;;;;;;10480574;28;19931;-88
2021/05/07 01:14:43;;;;;;;;;;;3.70;99.90;;;;;;10472300;28;19929;-88
2021/05/07 01:19:45;;;;;;;;;;;3.40;99.90;;;;;;10485024;28;19931;-88
2021/05/07 01:24:47;;;;;;;;;;;3.40;99.90;;;;;;10487083;28;19928;-88
2021/05/07 01:29:49;;;;;;;;;;;3.10;99.90;;;;;;10487560;28;19947;-88
2021/05/07 01:34:50;;;;;;;;;;;3.90;99.90;;;;;;10487440;28;19925;-88
2021/05/07 01:39:51;;;;;;;;;;;4.10;99.90;;;;;;10504833;28;19925;-89
2021/05/07 01:44:53;;;;;;;;;;;3.30;99.90;;;;;;10470451;28;20279;-88
2021/05/07 01:49:54;;;;;;;;;;;3.70;99.90;;;;;;10504301;28;20372;-88
2021/05/07 01:54:55;;;;;;;;;;;3.10;99.90;;;;;;10469822;28;19925;-88
2021/05/07 01:59:58;;;;;;;;;;;5.80;99.90;;;;;;10486054;28;20028;-88
2021/05/07 02:04:59;;;;;;;;;;;3.30;99.90;;;;;;10453886;28;20036;-88
2021/05/07 02:10:00;;;;;;;;;;;3.10;99.90;;;;;;10466684;28;19931;-88
2021/05/07 02:15:04;;;;;;;;;;;3.20;99.90;;;;;;10485537;28;19924;-88
2021/05/07 02:20:06;;;;;;;;;;;5.00;99.90;;;;;;10486017;28;19931;-89
2021/05/07 02:25:08;;;;;;;;;;;3.30;99.90;;;;;;10485744;28;19929;-88
2021/05/07 02:30:11;;;;;;;;;;;3.30;99.90;;;;;;10468401;28;20283;-88
2021/05/07 02:35:13;;;;;;;;;;;3.40;99.90;;;;;;10485458;28;19931;-88
2021/05/07 02:40:14;;;;;;;;;;;3.50;99.90;;;;;;10484644;28;19925;-89
2021/05/07 02:45:16;;;;;;;;;;;5.90;99.90;;;;;;10502639;28;19936;-88
2021/05/07 02:50:17;;;;;;;;;;;4.30;99.90;;;;;;10484233;28;19928;-88
2021/05/07 02:55:18;;;;;;;;;;;5.80;99.90;;;;;;10468045;28;19924;-88
2021/05/07 03:00:21;;;;;;;;;;;5.70;99.90;;;;;;10483896;28;19925;-88
2021/05/07 03:05:23;;;;;;;;;;;3.90;99.90;;;;;;10467024;28;20331;-88
2021/05/07 03:10:24;;;;;;;;;;;3.90;99.90;;;;;;10483094;28;20375;-88
2021/05/07 03:15:27;;;;;;;;;;;4.00;99.90;;;;;;10501766;28;20019;-88
2021/05/07 03:20:29;;;;;;;;;;;4.40;99.90;;;;;;10500176;28;19925;-88
2021/05/07 03:25:30;;;;;;;;;;;4.10;99.90;;;;;;10466192;28;20421;-88
2021/05/07 03:30:33;;;;;;;;;;;5.00;99.90;;;;;;10500697;28;19924;-88
2021/05/07 03:35:35;;;;;;;;;;;4.10;99.90;;;;;;10466432;28;20007;-88
2021/05/07 03:40:36;;;;;;;;;;;4.10;99.90;;;;;;10475760;28;19925;-88
2021/05/07 03:45:38;;;;;;;;;;;5.40;99.90;;;;;;10424523;28;20019;-88
2021/05/07 03:50:39;;;;;;;;;;;4.30;99.90;;;;;;10424591;28;19924;-88
2021/05/07 03:55:40;;;;;;;;;;;4.40;99.90;;;;;;10423769;28;20376;-87
2021/05/07 04:00:42;;;;;;;;;;;4.30;99.90;;;;;;10476466;28;19946;-88
2021/05/07 04:05:46;;;;;;;;;;;5.80;99.90;;;;;;10481625;28;19931;-87
2021/05/07 04:10:56;;;;;;;;;;;4.30;99.90;;;;;;10465044;28;20287;-88
2021/05/07 04:15:58;;;;;;;;;;;4.30;99.90;;;;;;10481037;28;20398;-87
2021/05/07 04:20:59;;;;;;;;;;;4.40;99.90;;;;;;10498955;28;19924;-88
2021/05/07 04:26:01;;;;;;;;;;;4.30;99.90;;;;;;10481908;28;20260;-88
2021/05/07 04:31:02;;;;;;;;;;;4.30;99.90;;;;;;10481644;28;19971;-88
2021/05/07 04:36:04;;;;;;;;;;;5.70;99.90;;;;;;10463597;28;20295;-88
2021/05/07 04:41:05;;;;;;;;;;;4.20;99.90;;;;;;10479492;28;19928;-87
2021/05/07 04:46:06;;;;;;;;;;;5.70;99.90;;;;;;10480753;28;19931;-87
2021/05/07 04:51:08;;;;;;;;;;;3.90;99.90;;;;;;10480933;28;19928;-87
2021/05/07 04:56:09;;;;;;;;;;;4.10;99.90;;;;;;10471711;28;19931;-87
2021/05/07 05:01:10;;;;;;;;;;;3.60;99.90;;;;;;10488298;28;20390;-87
2021/05/07 05:06:12;;;;;;;;;;;3.50;99.90;;;;;;10489793;22;20014;-88
2021/05/07 05:11:13;;;;;;;;;;;3.20;99.90;;;;;;10471619;28;20282;-87
2021/05/07 05:16:14;;;;;;;;;;;3.10;99.90;;;;;;10487180;28;19924;-88
2021/05/07 05:21:16;;;;;;;;;;;4.60;99.90;;;;;;10487968;28;19939;-88
2021/05/07 05:26:19;;;;;;;;;;;5.00;99.90;;;;;;10505089;28;20321;-88
2021/05/07 05:31:20;;;;;;;;;;;3.20;99.90;;;;;;10487577;28;19928;-87
2021/05/07 05:36:24;;;;;;;;;;;3.40;99.90;;;;;;10503369;28;19935;-88
2021/05/07 05:41:25;;;;;;;;;;;3.20;99.90;;;;;;10470488;28;19925;-87
2021/05/07 05:46:26;;;;;;;;;;;3.50;99.90;;;;;;10487122;28;19930;-88
2021/05/07 05:51:27;;;;;;;;;;;3.50;99.90;;;;;;10487037;28;20282;-88
2021/05/07 05:56:29;;;;;;;;;;;5.60;99.90;;;;;;10486182;28;19935;-88
2021/05/07 06:01:30;;;;;;;;;;;5.00;99.90;;;;;;10469965;28;19925;-87
2021/05/07 06:06:31;;;;;;;;;;;3.80;99.90;;;;;;10484778;28;19971;-88
2021/05/07 06:11:33;;;;;;;;;;;6.10;99.90;;;;;;10469668;28;19924;-88
2021/05/07 06:16:34;;;;;;;;;;;4.30;99.90;;;;;;10469237;28;19925;-88
2021/05/07 06:21:36;;;;;;;;;;;5.30;99.90;;;;;;10502452;28;19924;-88
2021/05/07 06:26:37;;;;;;;;;;;5.60;99.90;;;;;;10502187;28;19924;-88
2021/05/07 06:31:38;;;;;;;;;;;6.50;99.90;;;;;;10501879;28;20020;-88
2021/05/07 06:36:40;;;;;;;;;;;7.20;99.90;;;;;;10501742;28;19931;-88
2021/05/07 06:41:41;;;;;;;;;;;7.30;99.90;;;;;;10484686;28;20019;-88
2021/05/07 06:46:42;;;;;;;;;;;8.10;99.90;;;;;;10498683;28;19931;-88
2021/05/07 06:51:43;;;;;;;;;;;8.50;99.90;;;;;;10483853;28;19928;-88
2021/05/07 06:56:45;;;;;;;;;;;8.80;99.90;;;;;;10484433;28;19925;-88
2021/05/07 07:01:46;;;;;;;;;;;9.10;99.90;;;;;;10467065;28;19925;-88
2021/05/07 07:06:47;;;;;;;;;;;8.70;99.90;;;;;;10466498;28;19971;-88
2021/05/07 07:11:49;;;;;;;;;;;9.50;99.90;;;;;;10467412;28;19928;-88
2021/05/07 07:16:50;;;;;;;;;;;9.90;99.90;;;;;;10465234;28;20367;-88
2021/05/07 07:21:52;;;;;;;;;;;10.30;99.90;;;;;;10466148;28;20379;-88
2021/05/07 07:26:54;;;;;;;;;;;10.70;99.90;;;;;;10466740;28;19924;-88
2021/05/07 07:31:55;;;;;;;;;;;10.70;99.90;;;;;;10484558;28;19925;-89
2021/05/07 07:36:57;;;;;;;;;;;10.40;99.90;;;;;;10501120;28;19924;-88
2021/05/07 07:41:58;;;;;;;;;;;10.90;99.90;;;;;;10466081;28;19928;-89
2021/05/07 07:47:00;;;;;;;;;;;10.90;99.90;;;;;;10484256;28;20360;-89
2021/05/07 07:52:01;;;;;;;;;;;11.40;99.90;;;;;;10482340;28;20007;-89
2021/05/07 07:57:03;;;;;;;;;;;11.90;99.90;;;;;;10498562;28;19968;-89
2021/05/07 08:02:04;;;;;;;;;;;11.80;99.90;;;;;;10488548;28;19924;-89
2021/05/07 08:07:09;;;;;;;;;;;11.60;99.90;;;;;;10499016;28;19928;-89
2021/05/07 08:12:11;;;;;;;;;;;12.20;99.90;;;;;;10481982;28;19928;-89
2021/05/07 08:17:12;;;;;;;;;;;11.60;99.90;;;;;;10497333;28;20010;-89
2021/05/07 08:22:16;;;;;;;;;;;13.50;99.90;;;;;;10481211;28;20376;-89
2021/05/07 08:27:20;;;;;;;;;;;12.50;99.90;;;;;;10497233;28;19924;-88
2021/05/07 08:32:23;;;;;;;;;;;12.40;99.90;;;;;;10496786;28;19993;-89
2021/05/07 08:37:25;;;;;;;;;;;12.60;99.90;;;;;;10499112;28;20023;-89
2021/05/07 08:42:27;;;;;;;;;;;12.10;99.90;;;;;;10499284;28;20011;-89
2021/05/07 08:47:32;;;;;;;;;;;12.60;99.90;;;;;;10478971;28;19931;-89
2021/05/07 08:52:34;;;;;;;;;;;13.20;99.90;;;;;;10497789;28;19925;-89
2021/05/07 08:57:36;;;;;;;;;;;13.50;99.90;;;;;;10497359;28;19924;-89
2021/05/07 09:02:38;;;;;;;;;;;11.80;99.90;;;;;;10498463;28;20007;-89
2021/05/07 09:07:39;;;;;;;;;;;13.20;99.90;;;;;;10467451;28;19943;-89
2021/05/07 09:12:41;;;;;;;;;;;13.50;98.80;;;;;;10479906;28;20295;-89
2021/05/07 09:17:43;;;;;;;;;;;13.10;98.70;;;;;;10480234;28;20019;-89
2021/05/07 09:22:44;;;;;;;;;;;13.00;94.90;;;;;;10478894;28;20286;-90
2021/05/07 09:27:45;;;;;;;;;;;14.40;97.10;;;;;;10479048;28;20291;-90
2021/05/07 09:32:51;;;;;;;;;;;13.50;95.90;;;;;;10479487;28;20282;-89
2021/05/07 09:37:56;;;;;;;;;;;12.80;97.50;;;;;;10492867;28;19978;-89
2021/05/07 09:43:04;;;;;;;;;;;14.40;94.20;;;;;;10502789;28;20360;-89
2021/05/07 09:48:18;;;;;;;;;;;14.40;96.60;;;;;;10503689;28;19924;-90
2021/05/07 09:53:21;;;;;;;;;;;13.90;92.60;;;;;;10505236;28;19979;-89
2021/05/07 09:58:22;;;;;;;;;;;14.60;92.20;;;;;;10505643;28;19925;-89
2021/05/07 10:03:23;;;;;;;;;;;14.90;89.80;;;;;;10486623;28;19924;-89
2021/05/07 10:08:25;;;;;;;;;;;16.00;90.10;;;;;;10485844;28;20020;-89
2021/05/07 10:13:28;;;;;;;;;;;14.80;91.90;;;;;;10486199;28;19931;-89
2021/05/07 10:18:34;;;;;;;;;;;14.50;90.80;;;;;;10485293;28;20489;-89
2021/05/07 10:23:36;;;;;;;;;;;14.60;93.80;;;;;;10469147;28;20040;-90
2021/05/07 10:28:43;;;;;;;;;;;15.10;90.10;;;;;;10485920;28;19924;-91
2021/05/07 10:33:58;;;;;;;;;;;15.00;83.90;;;;;;10495072;28;19931;-88
2021/05/07 10:39:02;;;;;;;;;;;15.80;92.10;;;;;;10443821;28;20451;-91
2021/05/07 10:44:03;;;;;;;;;;;14.20;90.10;;;;;;10449180;28;19928;-90
2021/05/07 10:49:04;;;;;;;;;;;13.80;91.90;;;;;;10484039;28;20359;-90
2021/05/07 10:54:29;;;;;;;;;;;15.20;88.40;;;;;;10483881;28;19928;-90
2021/05/07 10:59:30;;;;;;;;;;;15.60;84.70;;;;;;10501345;28;19938;-91
2021/05/07 11:04:41;;;;;;;;;;;15.70;85.40;;;;;;10506294;22;19925;-89
2021/05/07 11:09:42;;;;;;;;;;;14.30;86.10;;;;;;10500557;28;19924;-90
2021/05/07 11:14:44;;;;;;;;;;;12.30;94.40;;;;;;10499696;28;20401;-92
2021/05/07 11:19:46;;;;;;;;;;;11.80;96.40;;;;;;10499995;28;19924;-91
2021/05/07 11:24:49;;;;;;;;;;;11.70;97.20;;;;;;10500776;28;19938;-90
2021/05/07 11:29:51;;;;;;;;;;;11.40;97.40;;;;;;10499956;28;19935;-89
2021/05/07 11:35:00;;;;;;;;;;;11.40;97.50;;;;;;10480289;28;19935;-90
2021/05/07 11:40:04;;;;;;;;;;;11.80;97.60;;;;;;10499217;28;20011;-90
2021/05/07 11:45:07;;;;;;;;;;;13.50;94.40;;;;;;10498387;28;20282;-90
2021/05/07 11:50:09;;;;;;;;;;;13.10;94.30;;;;;;10498279;28;19925;-91
2021/05/07 11:55:12;;;;;;;;;;;14.20;93.70;;;;;;10483963;28;19928;-90
2021/05/07 12:00:19;;;;;;;;;;;13.90;91.80;;;;;;10498368;28;19924;-91
2021/05/07 12:05:27;;;;;;;;;;;12.80;94.40;;;;;;10481421;28;19928;-91
2021/05/07 12:10:29;;;;;;;;;;;12.30;93.10;;;;;;10497651;28;20283;-90
2021/05/07 12:15:47;;;;;;;;;;;12.70;93.50;;;;;;10497358;28;19928;-90
2021/05/07 12:20:49;;;;;;;;;;;13.90;89.60;;;;;;10499441;28;19978;-92
2021/05/07 12:25:51;;;;;;;;;;;12.60;91.60;;;;;;10497955;28;19929;-91
2021/05/07 12:30:52;;;;;;;;;;;12.30;92.40;;;;;;10490694;28;19928;-90
2021/05/07 12:35:57;;;;;;;;;;;12.30;93.20;;;;;;10489654;28;20019;-90
2021/05/07 12:41:00;;;;;;;;;;;12.20;92.20;;;;;;10499608;28;20007;-90
2021/05/07 12:46:02;;;;;;;;;;;14.20;84.70;;;;;;10497448;28;19925;-90
2021/05/07 12:51:24;;;;;;;;;;;15.30;76.10;;;;;;10497705;28;19925;-91
2021/05/07 12:56:26;;;;;;;;;;;13.60;80.00;;;;;;10446576;28;20280;-91
2021/05/07 13:01:27;;;;;;;;;;;12.60;85.00;;;;;;10457048;28;19929;-91
2021/05/07 13:06:30;;;;;;;;;;;13.10;86.40;;;;;;10454346;28;20390;-91
2021/05/07 13:11:31;;;;;;;;;;;14.50;77.70;;;;;;10438582;28;20363;-91
2021/05/07 13:16:32;;;;;;;;;;;13.80;77.70;;;;;;10445322;28;19925;-91
2021/05/07 13:21:33;;;;;;;;;;;14.50;78.70;;;;;;10463398;28;19931;-91
2021/05/07 13:26:35;;;;;;;;;;;14.30;75.10;;;;;;10446546;28;19929;-90
2021/05/07 13:31:36;;;;;;;;;;;15.00;76.60;;;;;;10464229;28;19925;-90
2021/05/07 13:36:37;;;;;;;;;;;15.00;84.40;;;;;;10501248;28;20383;-90
2021/05/07 13:41:39;;;;;;;;;;;14.90;71.30;;;;;;10476177;28;19924;-90
2021/05/07 13:46:40;;;;;;;;;;;13.30;79.40;;;;;;10486437;28;20283;-90
2021/05/07 13:51:42;;;;;;;;;;;15.20;75.60;;;;;;10487072;28;19967;-90
2021/05/07 13:56:44;;;;;;;;;;;15.20;68.60;;;;;;10469785;28;20351;-90
2021/05/07 14:01:46;;;;;;;;;;;15.90;70.10;;;;;;10486508;28;19925;-90
2021/05/07 14:06:47;;;;;;;;;;;14.80;64.10;;;;;;10503294;28;19971;-89
2021/05/07 14:11:50;;;;;;;;;;;14.80;70.10;;;;;;10481054;28;19929;-90
2021/05/07 14:16:52;;;;;;;;;;;15.50;67.60;;;;;;10501392;28;20007;-90
2021/05/07 14:21:54;;;;;;;;;;;13.80;65.60;;;;;;10501874;28;19924;-90
2021/05/07 14:26:56;;;;;;;;;;;13.80;70.10;;;;;;10502448;28;19925;-89
2021/05/07 14:31:57;;;;;;;;;;;14.30;72.40;;;;;;10503094;28;19924;-89
2021/05/07 14:36:58;;;;;;;;;;;14.30;68.90;;;;;;10526644;28;20008;-90
2021/05/07 14:42:00;;;;;;;;;;;14.40;71.30;;;;;;10544636;28;19930;-89
2021/05/07 14:47:04;;;;;;;;;;;14.70;72.40;;;;;;10544154;28;19924;-90
2021/05/07 14:52:06;;;;;;;;;;;14.00;76.10;;;;;;10516183;28;20346;-88
2021/05/07 14:57:07;;;;;;;;;;;13.50;80.70;;;;;;10521081;28;20022;-89
2021/05/07 15:02:09;;;;;;;;;;;13.20;82.40;;;;;;10508765;28;19924;-89
2021/05/07 15:07:21;;;;;;;;;;;14.70;82.70;;;;;;10524502;28;19928;-89
2021/05/07 15:12:24;;;;;;;;;;;14.30;84.10;;;;;;10510041;28;19924;-89
2021/05/07 15:17:25;;;;;;;;;;;14.00;82.30;;;;;;10524538;28;19924;-89
2021/05/07 15:22:28;;;;;;;;;;;13.60;80.00;;;;;;10529906;28;19931;-88
2021/05/07 15:27:30;;;;;;;;;;;13.30;80.10;;;;;;10497799;28;19929;-87
2021/05/07 15:32:32;;;;;;;;;;;12.90;81.80;;;;;;10508366;28;19924;-86
2021/05/07 15:37:35;;;;;;;;;;;13.70;81.30;;;;;;10528122;28;19924;-86
2021/05/07 15:42:36;;;;;;;;;;;14.10;78.00;;;;;;10518115;28;19971;-87
2021/05/07 15:47:38;;;;;;;;;;;14.40;63.10;;;;;;10458218;28;19967;-86
2021/05/07 15:52:40;;;;;;;;;;;14.30;64.80;;;;;;10459234;28;19929;-87
2021/05/07 15:57:43;;;;;;;;;;;14.10;64.80;;;;;;10458484;28;19931;-86
2021/05/07 16:02:45;;;;;;;;;;;13.80;67.50;;;;;;10468054;28;19930;-86
2021/05/07 16:07:46;;;;;;;;;;;13.70;71.50;;;;;;10497505;28;19925;-86
2021/05/07 16:12:51;;;;;;;;;;;13.50;71.50;;;;;;10481211;28;20122;-86
2021/05/07 16:17:53;;;;;;;;;;;13.60;73.60;;;;;;10498113;28;19931;-86
2021/05/07 16:22:54;;;;;;;;;;;13.50;75.20;;;;;;10497326;28;19955;-86
2021/05/07 16:27:56;;;;;;;;;;;13.50;73.80;;;;;;10498342;28;19925;-86
2021/05/07 16:32:57;;;;;;;;;;;13.40;74.30;;;;;;10481237;28;19931;-86
2021/05/07 16:38:08;;;;;;;;;;;13.30;72.70;;;;;;10497090;28;19931;-86
2021/05/07 16:43:09;;;;;;;;;;;12.70;75.60;;;;;;10454445;28;19932;-86
2021/05/07 16:48:11;;;;;;;;;;;13.00;76.70;;;;;;10456597;28;20023;-86
2021/05/07 16:53:12;;;;;;;;;;;12.90;75.90;;;;;;10497457;28;19924;-86
2021/05/07 16:58:14;;;;;;;;;;;12.30;78.20;;;;;;10548316;28;20281;-86
2021/05/07 17:03:15;;;;;;;;;;;12.40;79.80;;;;;;10528922;28;19946;-86
2021/05/07 17:08:16;;;;;;;;;;;12.40;77.90;;;;;;10456555;22;19925;-84
2021/05/07 17:13:18;;;;;;;;;;;12.30;80.90;;;;;;10439712;28;19959;-83
2021/05/07 17:18:21;;;;;;;;;;;12.20;77.00;;;;;;10421646;28;19929;-84
2021/05/07 17:23:22;;;;;;;;;;;12.10;81.00;;;;;;10418121;28;20015;-84
2021/05/07 17:28:44;;;;;;;;;;;11.90;79.40;;;;;;10405724;28;19929;-84
2021/05/07 17:33:45;;;;;;;;;;;11.60;78.10;;;;;;10440342;28;20024;-84
2021/05/07 17:38:47;;;;;;;;;;;11.70;78.40;;;;;;10420570;28;19964;-84
2021/05/07 17:43:49;;;;;;;;;;;11.50;75.40;;;;;;10420418;28;19929;-84
2021/05/07 17:48:50;;;;;;;;;;;11.20;76.30;;;;;;10433734;28;20284;-84
2021/05/07 17:53:51;;;;;;;;;;;11.20;77.50;;;;;;10417122;28;20300;-84
2021/05/07 17:58:52;;;;;;;;;;;11.00;78.60;;;;;;10408419;28;19929;-84
2021/05/07 18:03:54;;;;;;;;;;;10.90;77.10;;;;;;10399822;28;19933;-83
2021/05/07 18:08:55;;;;;;;;;;;10.90;82.40;;;;;;10415905;28;19933;-83
2021/05/07 18:13:56;;;;;;;;;;;10.70;83.30;;;;;;10401787;28;19925;-83
2021/05/07 18:18:58;;;;;;;;;;;10.60;87.20;;;;;;10418273;28;19925;-84
2021/05/07 18:24:00;;;;;;;;;;;10.30;86.60;;;;;;10417834;28;19975;-83
2021/05/07 18:29:02;;;;;;;;;;;10.20;90.50;;;;;;10416952;28;19929;-83
2021/05/07 18:34:03;;;;;;;;;;;10.10;91.00;;;;;;10415360;28;20020;-84
2021/05/07 18:39:13;;;;;;;;;;;10.00;91.20;;;;;;10426899;28;19975;-83
2021/05/07 18:44:14;;;;;;;;;;;9.70;92.20;;;;;;10395310;28;19935;-83
2021/05/07 18:49:15;;;;;;;;;;;9.70;92.50;;;;;;10413810;28;19929;-83
2021/05/07 18:54:20;;;;;;;;;;;9.50;93.70;;;;;;10415087;28;19926;-83
2021/05/07 18:59:26;;;;;;;;;;;9.30;94.60;;;;;;10414532;28;20276;-83
2021/05/07 19:04:28;;;;;;;;;;;9.40;96.60;;;;;;10410376;28;19929;-83
2021/05/07 19:09:29;;;;;;;;;;;10.00;98.50;;;;;;10449430;28;19935;-83
2021/05/07 19:14:31;;;;;;;;;;;8.70;99.20;;;;;;10434943;28;19928;-83
2021/05/07 19:19:40;;;;;;;;;;;8.70;98.90;;;;;;10453380;28;19929;-83
2021/05/07 19:24:41;;;;;;;;;;;8.50;99.90;;;;;;10435392;28;20020;-84
2021/05/07 19:29:43;;;;;;;;;;;8.20;99.90;;;;;;10436687;28;20292;-84
2021/05/07 19:34:44;;;;;;;;;;;8.20;99.90;;;;;;10452566;28;19929;-84
2021/05/07 19:39:46;;;;;;;;;;;8.00;99.90;;;;;;10435657;28;19935;-83
2021/05/07 19:44:47;;;;;;;;;;;7.80;99.90;;;;;;10451637;28;20284;-84
2021/05/07 19:49:48;;;;;;;;;;;7.70;99.90;;;;;;10451835;28;19972;-84
2021/05/07 19:54:50;;;;;;;;;;;8.20;99.90;;;;;;10451880;28;20473;-84
2021/05/07 19:59:55;;;;;;;;;;;7.30;99.90;;;;;;10450628;28;19969;-84
2021/05/07 20:04:56;;;;;;;;;;;7.20;99.90;;;;;;10434152;28;20273;-83
2021/05/07 20:09:58;;;;;;;;;;;7.30;99.90;;;;;;10432804;28;20007;-83
2021/05/07 20:14:59;;;;;;;;;;;7.10;99.90;;;;;;10434498;28;19940;-83
2021/05/07 20:20:01;;;;;;;;;;;8.30;99.90;;;;;;10452161;28;19929;-83
2021/05/07 20:25:03;;;;;;;;;;;6.90;99.90;;;;;;10432473;28;20280;-83
2021/05/07 20:30:05;;;;;;;;;;;6.70;99.90;;;;;;10433017;28;19933;-83
2021/05/07 20:35:09;;;;;;;;;;;6.60;99.90;;;;;;10433077;28;20294;-83
2021/05/07 20:40:11;;;;;;;;;;;6.40;99.90;;;;;;10433198;28;19925;-83
2021/05/07 20:45:13;;;;;;;;;;;6.30;99.90;;;;;;10450764;28;19928;-83
2021/05/07 20:50:14;;;;;;;;;;;6.20;99.90;;;;;;10433291;28;19955;-83
2021/05/07 20:55:16;;;;;;;;;;;6.90;99.90;;;;;;10453660;28;19931;-83
2021/05/07 21:00:18;;;;;;;;;;;5.90;99.90;;;;;;10453800;28;19925;-83
2021/05/07 21:05:19;;;;;;;;;;;5.90;99.90;;;;;;10427121;28;19929;-84
2021/05/07 21:10:20;;;;;;;;;;;6.50;99.90;;;;;;10447480;28;19929;-83
2021/05/07 21:15:24;;;;;;;;;;;6.00;99.90;;;;;;10453317;28;19971;-84
2021/05/07 21:20:27;;;;;;;;;;;6.20;99.90;;;;;;10436536;28;19931;-83
2021/05/07 21:25:29;;;;;;;;;;;5.50;99.90;;;;;;10432507;28;19987;-83
2021/05/07 21:30:31;;;;;;;;;;;6.20;99.90;;;;;;10409663;28;20015;-83
2021/05/07 21:35:32;;;;;;;;;;;5.30;99.90;;;;;;10440162;28;19925;-83
2021/05/07 21:40:34;;;;;;;;;;;5.50;99.90;;;;;;10461705;28;19924;-83
2021/05/07 21:45:36;;;;;;;;;;;5.40;99.90;;;;;;10462168;28;19931;-83
2021/05/07 21:50:38;;;;;;;;;;;5.30;99.90;;;;;;10445830;28;20280;-83
2021/05/07 21:55:43;;;;;;;;;;;5.30;99.90;;;;;;10404416;28;19983;-83
2021/05/07 22:00:44;;;;;;;;;;;6.20;99.90;;;;;;10456717;28;19925;-83
2021/05/07 22:05:46;;;;;;;;;;;5.10;99.90;;;;;;10427332;28;19931;-83
2021/05/07 22:10:48;;;;;;;;;;;5.30;99.90;;;;;;10448083;28;19924;-83
2021/05/07 22:15:50;;;;;;;;;;;5.00;99.90;;;;;;10426665;28;20003;-83
2021/05/07 22:20:52;;;;;;;;;;;5.00;99.90;;;;;;10461448;28;20008;-83
2021/05/07 22:25:54;;;;;;;;;;;5.00;99.90;;;;;;10443566;28;19924;-83
2021/05/07 22:30:56;;;;;;;;;;;4.90;99.90;;;;;;10431788;28;19932;-83
2021/05/07 22:35:58;;;;;;;;;;;5.40;99.90;;;;;;10430475;28;19929;-83
2021/05/07 22:41:00;;;;;;;;;;;6.30;99.90;;;;;;10399755;28;19931;-83
2021/05/07 22:46:01;;;;;;;;;;;4.50;99.90;;;;;;10418003;28;19932;-83
2021/05/07 22:51:03;;;;;;;;;;;5.40;99.90;;;;;;10440318;28;19928;-83
2021/05/07 22:56:04;;;;;;;;;;;4.50;99.90;;;;;;10441943;28;19932;-83
2021/05/07 23:01:06;;;;;;;;;;;5.60;99.90;;;;;;10425047;28;19924;-83
2021/05/07 23:06:07;;;;;;;;;;;4.40;99.90;;;;;;10462277;22;19931;-83
2021/05/07 23:11:09;;;;;;;;;;;4.40;99.90;;;;;;10495948;28;19963;-83
2021/05/07 23:16:10;;;;;;;;;;;4.40;99.90;;;;;;10499773;28;20286;-83
2021/05/07 23:21:11;;;;;;;;;;;4.30;99.90;;;;;;10501213;28;20383;-83
2021/05/07 23:26:13;;;;;;;;;;;4.20;99.90;;;;;;10501129;28;19928;-83
2021/05/07 23:31:14;;;;;;;;;;;4.80;99.90;;;;;;10499695;28;20028;-83
2021/05/07 23:36:15;;;;;;;;;;;5.20;99.90;;;;;;10499530;28;19925;-83
2021/05/07 23:41:17;;;;;;;;;;;4.90;99.90;;;;;;10498729;28;19947;-83
2021/05/07 23:46:18;;;;;;;;;;;4.00;99.90;;;;;;10499235;28;19995;-83
2021/05/07 23:51:19;;;;;;;;;;;3.80;99.90;;;;;;10482346;28;19925;-83
2021/05/07 23:56:20;;;;;;;;;;;5.40;99.90;;;;;;10498759;28;19924;-83
